You are on page 1of 2

METAR/TAF:

KRSW 022053Z 13009KT 10SM FEW036 28/19 A3001 RMK AO2 SLP158 T02830189 56016

KRSW 021742Z 0218/0318 14008KT P6SM BKN020


FM022000 15010KT P6SM SCT035 SCT100
FM030400 12006KT 5SM BR SCT005 BKN010
FM030800 14006KT 2SM BR SCT002 BKN008
FM031500 16012G22KT P6SM SCT007 BKN015

KDAB 022053Z 12009G18KT 070V150 10SM FEW019 FEW055 24/19 A3008 RMK AO2
SLP185 T02440194 55006 $

KDAB 021732Z 0218/0318 11010KT P6SM SCT020


FM030000 11006KT 6SM BR SCT015 BKN025
TEMPO 0308/0312 3SM BR BKN005
FM031500 16011G19KT P6SM BKN025 OVC100

KLAL 022045Z 12009KT 10SM BKN039 28/19 A3003

KLAL 021742Z 0218/0318 15011KT P6SM SCT020


FM022000 14009KT P6SM SCT035 SCT080
FM030400 14007KT 4SM BR SCT005 BKN015
FM030800 12006KT 2SM BR SCT002 BKN008
FM031500 17012G20KT P6SM SCT007 BKN015
RADAR:
LOW LEVEL PROG CHART:

SURFACE ANALYSIS: SATALITE: